Terminal Aerodrome Forecast
Issued by NWS Charleston, SC

Home | Current Version | Previous Version | Text Only | Print | Product List | Glossary On
Versions: 1 2 3 4 5 6 7 8 9 10 11 12 13 14 15 16 17 18 19 20 21 22 23 24 25 26 27
000
FTUS42 KCHS 040248 AAB
TAFSAV
TAF AMD
KSAV 040248Z 0403/0424 13004KT 6SM BR BKN005
     FM040500 18005KT 1SM BR OVC003
     FM040700 19005KT 1/4SM FG VV002
     FM041500 21010G15KT P6SM BKN010
     FM041700 20016G26KT P6SM SCT015 BKN035=

USA.gov is the U.S. government's official web portal to all federal, state and local government web resources and services.